sensor_id;sensor_type;location;lat;lon;timestamp;P1;durP1;ratioP1;P2;durP2;ratioP2
29774;SDS011;16676;51.202;6.774;2023-04-06T00:00:27;1.08;;;0.80;;
29774;SDS011;16676;51.202;6.774;2023-04-06T00:04:29;1.10;;;0.75;;
29774;SDS011;16676;51.202;6.774;2023-04-06T00:08:31;1.45;;;0.80;;
29774;SDS011;16676;51.202;6.774;2023-04-06T00:12:33;1.00;;;0.80;;
29774;SDS011;16676;51.202;6.774;2023-04-06T00:16:36;1.73;;;1.05;;
29774;SDS011;16676;51.202;6.774;2023-04-06T00:20:38;1.65;;;1.02;;
29774;SDS011;16676;51.202;6.774;2023-04-06T00:24:40;1.10;;;0.70;;
29774;SDS011;16676;51.202;6.774;2023-04-06T00:28:42;1.02;;;0.73;;
29774;SDS011;16676;51.202;6.774;2023-04-06T00:32:45;0.82;;;0.70;;
29774;SDS011;16676;51.202;6.774;2023-04-06T00:36:47;1.95;;;1.17;;
29774;SDS011;16676;51.202;6.774;2023-04-06T00:40:49;0.73;;;0.73;;
29774;SDS011;16676;51.202;6.774;2023-04-06T00:44:52;1.25;;;0.80;;
29774;SDS011;16676;51.202;6.774;2023-04-06T00:48:56;1.38;;;1.00;;
29774;SDS011;16676;51.202;6.774;2023-04-06T00:52:58;1.35;;;0.75;;
29774;SDS011;16676;51.202;6.774;2023-04-06T00:57:00;1.17;;;0.70;;
29774;SDS011;16676;51.202;6.774;2023-04-06T01:01:02;1.20;;;1.08;;
29774;SDS011;16676;51.202;6.774;2023-04-06T01:05:06;1.48;;;0.70;;
29774;SDS011;16676;51.202;6.774;2023-04-06T01:09:08;1.70;;;0.80;;
29774;SDS011;16676;51.202;6.774;2023-04-06T01:13:10;1.60;;;0.80;;
29774;SDS011;16676;51.202;6.774;2023-04-06T01:17:12;1.30;;;0.80;;
29774;SDS011;16676;51.202;6.774;2023-04-06T01:21:15;1.23;;;0.70;;
29774;SDS011;16676;51.202;6.774;2023-04-06T01:25:38;1.00;;;0.90;;
29774;SDS011;16676;51.202;6.774;2023-04-06T01:30:00;1.27;;;1.05;;
29774;SDS011;16676;51.202;6.774;2023-04-06T01:34:22;1.15;;;0.80;;
29774;SDS011;16676;51.202;6.774;2023-04-06T01:38:43;1.50;;;0.90;;
29774;SDS011;16676;51.202;6.774;2023-04-06T01:42:47;1.67;;;1.00;;
29774;SDS011;16676;51.202;6.774;2023-04-06T01:46:49;1.23;;;0.90;;
29774;SDS011;16676;51.202;6.774;2023-04-06T01:50:50;0.82;;;0.70;;
29774;SDS011;16676;51.202;6.774;2023-04-06T01:54:52;1.38;;;1.00;;
29774;SDS011;16676;51.202;6.774;2023-04-06T01:58:56;1.27;;;0.80;;
29774;SDS011;16676;51.202;6.774;2023-04-06T02:02:57;2.03;;;1.10;;
29774;SDS011;16676;51.202;6.774;2023-04-06T02:07:00;1.33;;;0.90;;
29774;SDS011;16676;51.202;6.774;2023-04-06T02:11:01;1.10;;;0.93;;
29774;SDS011;16676;51.202;6.774;2023-04-06T02:15:05;1.52;;;0.80;;
29774;SDS011;16676;51.202;6.774;2023-04-06T02:19:08;1.65;;;1.10;;
29774;SDS011;16676;51.202;6.774;2023-04-06T02:23:10;1.23;;;1.00;;
29774;SDS011;16676;51.202;6.774;2023-04-06T02:27:13;1.27;;;1.00;;
29774;SDS011;16676;51.202;6.774;2023-04-06T02:31:17;1.85;;;0.93;;
29774;SDS011;16676;51.202;6.774;2023-04-06T02:35:18;0.82;;;0.65;;
29774;SDS011;16676;51.202;6.774;2023-04-06T02:39:20;2.47;;;1.13;;
29774;SDS011;16676;51.202;6.774;2023-04-06T02:43:22;1.25;;;0.93;;
29774;SDS011;16676;51.202;6.774;2023-04-06T02:47:26;1.40;;;0.88;;
29774;SDS011;16676;51.202;6.774;2023-04-06T03:33:47;1.20;;;0.90;;
29774;SDS011;16676;51.202;6.774;2023-04-06T03:37:49;1.48;;;1.08;;
29774;SDS011;16676;51.202;6.774;2023-04-06T03:41:51;1.08;;;0.90;;
29774;SDS011;16676;51.202;6.774;2023-04-06T03:45:53;1.50;;;0.85;;
29774;SDS011;16676;51.202;6.774;2023-04-06T03:49:56;1.67;;;1.17;;
29774;SDS011;16676;51.202;6.774;2023-04-06T03:53:58;1.30;;;0.80;;
29774;SDS011;16676;51.202;6.774;2023-04-06T03:58:00;1.20;;;0.93;;
29774;SDS011;16676;51.202;6.774;2023-04-06T04:02:02;1.67;;;1.25;;
29774;SDS011;16676;51.202;6.774;2023-04-06T04:06:05;1.55;;;1.00;;
29774;SDS011;16676;51.202;6.774;2023-04-06T04:10:08;0.95;;;0.82;;
29774;SDS011;16676;51.202;6.774;2023-04-06T04:14:10;0.90;;;0.80;;
29774;SDS011;16676;51.202;6.774;2023-04-06T04:18:12;1.13;;;1.02;;
29774;SDS011;16676;51.202;6.774;2023-04-06T04:22:16;1.40;;;0.95;;
29774;SDS011;16676;51.202;6.774;2023-04-06T04:26:18;1.60;;;1.05;;
29774;SDS011;16676;51.202;6.774;2023-04-06T04:30:20;1.02;;;0.90;;
29774;SDS011;16676;51.202;6.774;2023-04-06T04:34:22;1.65;;;0.80;;
29774;SDS011;16676;51.202;6.774;2023-04-06T04:38:26;1.83;;;1.15;;
29774;SDS011;16676;51.202;6.774;2023-04-06T04:42:29;1.13;;;0.95;;
29774;SDS011;16676;51.202;6.774;2023-04-06T04:46:31;1.38;;;1.15;;
29774;SDS011;16676;51.202;6.774;2023-04-06T04:50:33;1.33;;;0.95;;
29774;SDS011;16676;51.202;6.774;2023-04-06T04:54:36;1.00;;;0.85;;
29774;SDS011;16676;51.202;6.774;2023-04-06T04:58:40;1.48;;;1.05;;
29774;SDS011;16676;51.202;6.774;2023-04-06T05:02:42;2.17;;;1.42;;
29774;SDS011;16676;51.202;6.774;2023-04-06T05:06:44;2.08;;;1.27;;
29774;SDS011;16676;51.202;6.774;2023-04-06T05:10:47;1.75;;;1.25;;
29774;SDS011;16676;51.202;6.774;2023-04-06T05:14:49;1.25;;;0.93;;
29774;SDS011;16676;51.202;6.774;2023-04-06T05:18:51;1.38;;;0.90;;
29774;SDS011;16676;51.202;6.774;2023-04-06T05:22:54;1.60;;;1.15;;
29774;SDS011;16676;51.202;6.774;2023-04-06T05:26:57;1.92;;;1.38;;
29774;SDS011;16676;51.202;6.774;2023-04-06T05:31:00;1.48;;;0.93;;
29774;SDS011;16676;51.202;6.774;2023-04-06T05:35:02;1.63;;;1.15;;
29774;SDS011;16676;51.202;6.774;2023-04-06T05:39:04;1.80;;;1.20;;
29774;SDS011;16676;51.202;6.774;2023-04-06T05:43:07;1.35;;;1.05;;
29774;SDS011;16676;51.202;6.774;2023-04-06T05:47:09;1.25;;;1.08;;
29774;SDS011;16676;51.202;6.774;2023-04-06T05:51:11;1.45;;;1.10;;
29774;SDS011;16676;51.202;6.774;2023-04-06T05:55:13;1.52;;;1.17;;
29774;SDS011;16676;51.202;6.774;2023-04-06T05:59:17;1.20;;;1.00;;
29774;SDS011;16676;51.202;6.774;2023-04-06T06:03:19;1.50;;;1.17;;
29774;SDS011;16676;51.202;6.774;2023-04-06T06:07:22;1.70;;;1.20;;
29774;SDS011;16676;51.202;6.774;2023-04-06T06:11:25;2.85;;;1.40;;
29774;SDS011;16676;51.202;6.774;2023-04-06T06:15:28;2.17;;;1.40;;
29774;SDS011;16676;51.202;6.774;2023-04-06T06:19:30;1.65;;;1.05;;
29774;SDS011;16676;51.202;6.774;2023-04-06T06:23:32;1.95;;;1.23;;
29774;SDS011;16676;51.202;6.774;2023-04-06T06:27:33;1.45;;;1.10;;
29774;SDS011;16676;51.202;6.774;2023-04-06T06:31:37;1.48;;;1.17;;
29774;SDS011;16676;51.202;6.774;2023-04-06T06:35:39;2.08;;;1.50;;
29774;SDS011;16676;51.202;6.774;2023-04-06T06:39:41;2.55;;;1.27;;
29774;SDS011;16676;51.202;6.774;2023-04-06T06:43:43;2.17;;;1.45;;
29774;SDS011;16676;51.202;6.774;2023-04-06T06:47:46;1.55;;;1.42;;
29774;SDS011;16676;51.202;6.774;2023-04-06T06:51:48;1.50;;;1.23;;
29774;SDS011;16676;51.202;6.774;2023-04-06T06:55:50;1.70;;;1.40;;
29774;SDS011;16676;51.202;6.774;2023-04-06T06:59:52;1.40;;;1.20;;
29774;SDS011;16676;51.202;6.774;2023-04-06T07:03:55;1.92;;;1.60;;
29774;SDS011;16676;51.202;6.774;2023-04-06T07:07:57;1.60;;;1.15;;
29774;SDS011;16676;51.202;6.774;2023-04-06T07:11:59;2.90;;;1.40;;
29774;SDS011;16676;51.202;6.774;2023-04-06T07:16:02;2.13;;;1.30;;
29774;SDS011;16676;51.202;6.774;2023-04-06T07:20:06;2.15;;;1.33;;
29774;SDS011;16676;51.202;6.774;2023-04-06T07:24:08;2.33;;;1.30;;
29774;SDS011;16676;51.202;6.774;2023-04-06T07:28:10;1.60;;;1.30;;
29774;SDS011;16676;51.202;6.774;2023-04-06T07:32:12;1.98;;;1.48;;
29774;SDS011;16676;51.202;6.774;2023-04-06T07:36:15;2.85;;;1.45;;
29774;SDS011;16676;51.202;6.774;2023-04-06T07:40:17;3.55;;;1.30;;
29774;SDS011;16676;51.202;6.774;2023-04-06T07:44:19;2.03;;;1.15;;
29774;SDS011;16676;51.202;6.774;2023-04-06T07:48:21;1.40;;;1.20;;
29774;SDS011;16676;51.202;6.774;2023-04-06T07:52:25;3.30;;;1.67;;
29774;SDS011;16676;51.202;6.774;2023-04-06T07:56:27;3.13;;;1.40;;
29774;SDS011;16676;51.202;6.774;2023-04-06T08:00:29;2.60;;;1.60;;
29774;SDS011;16676;51.202;6.774;2023-04-06T08:04:31;3.28;;;1.60;;
29774;SDS011;16676;51.202;6.774;2023-04-06T08:08:34;3.08;;;1.67;;
29774;SDS011;16676;51.202;6.774;2023-04-06T08:12:36;2.10;;;1.67;;
29774;SDS011;16676;51.202;6.774;2023-04-06T08:16:38;2.38;;;1.67;;
29774;SDS011;16676;51.202;6.774;2023-04-06T08:20:40;3.72;;;1.77;;
29774;SDS011;16676;51.202;6.774;2023-04-06T08:24:43;2.50;;;1.70;;
29774;SDS011;16676;51.202;6.774;2023-04-06T08:28:45;2.40;;;1.95;;
29774;SDS011;16676;51.202;6.774;2023-04-06T08:32:47;3.38;;;2.08;;
29774;SDS011;16676;51.202;6.774;2023-04-06T08:36:49;2.72;;;2.00;;
29774;SDS011;16676;51.202;6.774;2023-04-06T08:40:52;3.22;;;1.95;;
29774;SDS011;16676;51.202;6.774;2023-04-06T08:44:54;3.53;;;2.03;;
29774;SDS011;16676;51.202;6.774;2023-04-06T08:48:57;2.60;;;1.83;;
29774;SDS011;16676;51.202;6.774;2023-04-06T08:52:59;2.97;;;1.70;;
29774;SDS011;16676;51.202;6.774;2023-04-06T08:57:04;3.50;;;1.92;;
29774;SDS011;16676;51.202;6.774;2023-04-06T09:01:06;3.33;;;1.83;;
29774;SDS011;16676;51.202;6.774;2023-04-06T09:05:10;2.55;;;1.70;;
29774;SDS011;16676;51.202;6.774;2023-04-06T09:09:12;2.60;;;1.67;;
29774;SDS011;16676;51.202;6.774;2023-04-06T09:13:15;2.78;;;1.73;;
29774;SDS011;16676;51.202;6.774;2023-04-06T09:17:21;2.95;;;1.70;;
29774;SDS011;16676;51.202;6.774;2023-04-06T09:21:23;2.85;;;1.90;;
29774;SDS011;16676;51.202;6.774;2023-04-06T09:25:26;3.15;;;2.00;;
29774;SDS011;16676;51.202;6.774;2023-04-06T09:29:29;2.30;;;1.70;;
29774;SDS011;16676;51.202;6.774;2023-04-06T09:33:32;3.33;;;1.60;;
29774;SDS011;16676;51.202;6.774;2023-04-06T09:37:34;2.40;;;1.75;;
29774;SDS011;16676;51.202;6.774;2023-04-06T09:41:36;2.70;;;1.85;;
29774;SDS011;16676;51.202;6.774;2023-04-06T09:45:40;3.20;;;2.15;;
29774;SDS011;16676;51.202;6.774;2023-04-06T09:49:42;3.00;;;1.58;;
29774;SDS011;16676;51.202;6.774;2023-04-06T09:53:45;4.88;;;2.10;;
29774;SDS011;16676;51.202;6.774;2023-04-06T09:57:55;2.60;;;1.80;;
29774;SDS011;16676;51.202;6.774;2023-04-06T10:02:05;3.38;;;2.05;;
29774;SDS011;16676;51.202;6.774;2023-04-06T10:06:10;3.08;;;2.00;;
29774;SDS011;16676;51.202;6.774;2023-04-06T10:10:14;3.30;;;2.33;;
29774;SDS011;16676;51.202;6.774;2023-04-06T10:14:16;3.38;;;2.50;;
29774;SDS011;16676;51.202;6.774;2023-04-06T10:18:20;2.80;;;2.10;;
29774;SDS011;16676;51.202;6.774;2023-04-06T10:22:24;3.63;;;2.03;;
29774;SDS011;16676;51.202;6.774;2023-04-06T10:26:37;3.97;;;2.15;;
29774;SDS011;16676;51.202;6.774;2023-04-06T10:30:41;4.72;;;2.25;;
29774;SDS011;16676;51.202;6.774;2023-04-06T10:34:45;2.95;;;2.17;;
29774;SDS011;16676;51.202;6.774;2023-04-06T10:38:53;3.60;;;2.40;;
29774;SDS011;16676;51.202;6.774;2023-04-06T10:43:06;2.90;;;1.90;;
29774;SDS011;16676;51.202;6.774;2023-04-06T10:47:15;2.60;;;1.60;;
29774;SDS011;16676;51.202;6.774;2023-04-06T10:51:19;4.05;;;2.38;;
29774;SDS011;16676;51.202;6.774;2023-04-06T10:55:27;3.58;;;2.30;;
29774;SDS011;16676;51.202;6.774;2023-04-06T10:59:30;3.40;;;2.17;;
29774;SDS011;16676;51.202;6.774;2023-04-06T11:03:32;3.70;;;1.70;;
29774;SDS011;16676;51.202;6.774;2023-04-06T11:07:45;3.58;;;2.03;;
29774;SDS011;16676;51.202;6.774;2023-04-06T11:11:47;2.42;;;1.70;;
29774;SDS011;16676;51.202;6.774;2023-04-06T11:15:49;2.83;;;1.73;;
29774;SDS011;16676;51.202;6.774;2023-04-06T11:19:51;2.95;;;1.83;;
29774;SDS011;16676;51.202;6.774;2023-04-06T11:23:55;2.95;;;1.77;;
29774;SDS011;16676;51.202;6.774;2023-04-06T11:28:05;5.03;;;1.95;;
29774;SDS011;16676;51.202;6.774;2023-04-06T11:32:07;3.83;;;2.00;;
29774;SDS011;16676;51.202;6.774;2023-04-06T11:36:10;2.72;;;1.73;;
29774;SDS011;16676;51.202;6.774;2023-04-06T11:40:13;3.38;;;1.95;;
29774;SDS011;16676;51.202;6.774;2023-04-06T11:44:15;3.03;;;1.65;;
29774;SDS011;16676;51.202;6.774;2023-04-06T11:48:28;2.78;;;1.70;;
29774;SDS011;16676;51.202;6.774;2023-04-06T11:52:30;2.00;;;1.58;;
29774;SDS011;16676;51.202;6.774;2023-04-06T11:56:33;2.45;;;1.60;;
29774;SDS011;16676;51.202;6.774;2023-04-06T12:00:35;2.80;;;1.73;;
29774;SDS011;16676;51.202;6.774;2023-04-06T12:04:37;2.08;;;1.70;;
29774;SDS011;16676;51.202;6.774;2023-04-06T12:08:39;2.25;;;1.52;;
29774;SDS011;16676;51.202;6.774;2023-04-06T12:12:43;3.47;;;1.92;;
29774;SDS011;16676;51.202;6.774;2023-04-06T12:16:45;2.50;;;1.73;;
29774;SDS011;16676;51.202;6.774;2023-04-06T12:20:47;2.58;;;1.60;;
29774;SDS011;16676;51.202;6.774;2023-04-06T12:24:48;2.20;;;1.65;;
29774;SDS011;16676;51.202;6.774;2023-04-06T12:28:52;2.53;;;1.65;;
29774;SDS011;16676;51.202;6.774;2023-04-06T12:32:54;3.88;;;1.73;;
29774;SDS011;16676;51.202;6.774;2023-04-06T12:36:56;2.30;;;1.45;;
29774;SDS011;16676;51.202;6.774;2023-04-06T12:40:57;2.03;;;1.52;;
29774;SDS011;16676;51.202;6.774;2023-04-06T12:45:01;2.22;;;1.40;;
29774;SDS011;16676;51.202;6.774;2023-04-06T12:49:03;3.05;;;1.77;;
29774;SDS011;16676;51.202;6.774;2023-04-06T12:53:05;2.60;;;1.70;;
29774;SDS011;16676;51.202;6.774;2023-04-06T12:57:07;2.50;;;1.50;;
29774;SDS011;16676;51.202;6.774;2023-04-06T13:01:10;2.50;;;1.65;;
29774;SDS011;16676;51.202;6.774;2023-04-06T13:05:13;1.80;;;1.33;;
29774;SDS011;16676;51.202;6.774;2023-04-06T13:09:18;1.55;;;1.27;;
29774;SDS011;16676;51.202;6.774;2023-04-06T13:13:21;3.33;;;1.40;;
29774;SDS011;16676;51.202;6.774;2023-04-06T13:17:26;2.38;;;1.58;;
29774;SDS011;16676;51.202;6.774;2023-04-06T13:21:28;2.60;;;1.50;;
29774;SDS011;16676;51.202;6.774;2023-04-06T13:25:30;2.05;;;1.50;;
29774;SDS011;16676;51.202;6.774;2023-04-06T13:29:32;2.05;;;1.70;;
29774;SDS011;16676;51.202;6.774;2023-04-06T13:33:36;2.13;;;1.42;;
29774;SDS011;16676;51.202;6.774;2023-04-06T13:37:38;2.15;;;1.60;;
29774;SDS011;16676;51.202;6.774;2023-04-06T13:41:40;2.10;;;1.45;;
29774;SDS011;16676;51.202;6.774;2023-04-06T13:45:42;2.60;;;1.80;;
29774;SDS011;16676;51.202;6.774;2023-04-06T13:53:53;2.75;;;1.65;;
29774;SDS011;16676;51.202;6.774;2023-04-06T13:57:55;2.00;;;1.42;;
29774;SDS011;16676;51.202;6.774;2023-04-06T14:01:57;2.15;;;1.50;;
29774;SDS011;16676;51.202;6.774;2023-04-06T14:06:00;2.00;;;1.45;;
29774;SDS011;16676;51.202;6.774;2023-04-06T14:10:10;2.45;;;1.38;;
29774;SDS011;16676;51.202;6.774;2023-04-06T14:14:14;2.22;;;1.40;;
29774;SDS011;16676;51.202;6.774;2023-04-06T14:18:16;2.05;;;1.42;;
29774;SDS011;16676;51.202;6.774;2023-04-06T14:22:19;1.83;;;1.35;;
29774;SDS011;16676;51.202;6.774;2023-04-06T14:26:21;2.25;;;1.50;;
29774;SDS011;16676;51.202;6.774;2023-04-06T14:30:23;1.92;;;1.40;;
29774;SDS011;16676;51.202;6.774;2023-04-06T14:34:25;3.05;;;1.60;;
29774;SDS011;16676;51.202;6.774;2023-04-06T14:38:28;3.25;;;1.85;;
29774;SDS011;16676;51.202;6.774;2023-04-06T14:42:31;2.00;;;1.60;;
29774;SDS011;16676;51.202;6.774;2023-04-06T14:46:33;1.88;;;1.42;;
29774;SDS011;16676;51.202;6.774;2023-04-06T14:50:35;2.65;;;1.50;;
29774;SDS011;16676;51.202;6.774;2023-04-06T14:54:38;2.28;;;1.77;;
29774;SDS011;16676;51.202;6.774;2023-04-06T14:58:40;2.17;;;1.70;;
29774;SDS011;16676;51.202;6.774;2023-04-06T15:02:42;3.33;;;1.98;;
29774;SDS011;16676;51.202;6.774;2023-04-06T15:06:44;3.38;;;1.98;;
29774;SDS011;16676;51.202;6.774;2023-04-06T15:10:47;2.88;;;1.83;;
29774;SDS011;16676;51.202;6.774;2023-04-06T15:14:50;3.40;;;1.77;;
29774;SDS011;16676;51.202;6.774;2023-04-06T15:18:52;2.13;;;1.60;;
29774;SDS011;16676;51.202;6.774;2023-04-06T15:22:53;2.78;;;1.63;;
29774;SDS011;16676;51.202;6.774;2023-04-06T15:26:57;3.65;;;2.08;;
29774;SDS011;16676;51.202;6.774;2023-04-06T15:30:59;1.70;;;1.40;;
29774;SDS011;16676;51.202;6.774;2023-04-06T15:35:09;2.35;;;1.52;;
29774;SDS011;16676;51.202;6.774;2023-04-06T15:39:11;1.88;;;1.48;;
29774;SDS011;16676;51.202;6.774;2023-04-06T15:43:15;1.90;;;1.45;;
29774;SDS011;16676;51.202;6.774;2023-04-06T15:47:18;2.90;;;1.67;;
29774;SDS011;16676;51.202;6.774;2023-04-06T15:51:20;3.40;;;2.05;;
29774;SDS011;16676;51.202;6.774;2023-04-06T15:55:23;2.00;;;1.52;;
29774;SDS011;16676;51.202;6.774;2023-04-06T15:59:26;2.78;;;1.70;;
29774;SDS011;16676;51.202;6.774;2023-04-06T16:03:28;2.45;;;1.63;;
29774;SDS011;16676;51.202;6.774;2023-04-06T16:07:30;4.55;;;2.25;;
29774;SDS011;16676;51.202;6.774;2023-04-06T16:11:33;2.50;;;1.70;;
29774;SDS011;16676;51.202;6.774;2023-04-06T16:15:37;2.15;;;1.63;;
29774;SDS011;16676;51.202;6.774;2023-04-06T16:19:39;2.28;;;1.73;;
29774;SDS011;16676;51.202;6.774;2023-04-06T16:23:41;2.63;;;1.67;;
29774;SDS011;16676;51.202;6.774;2023-04-06T16:27:44;2.17;;;1.40;;
29774;SDS011;16676;51.202;6.774;2023-04-06T16:31:47;2.70;;;1.65;;
29774;SDS011;16676;51.202;6.774;2023-04-06T16:35:49;2.17;;;1.67;;
29774;SDS011;16676;51.202;6.774;2023-04-06T16:39:51;2.88;;;1.75;;
29774;SDS011;16676;51.202;6.774;2023-04-06T16:43:53;2.78;;;1.90;;
29774;SDS011;16676;51.202;6.774;2023-04-06T16:47:58;2.90;;;1.48;;
29774;SDS011;16676;51.202;6.774;2023-04-06T16:51:59;2.33;;;1.58;;
29774;SDS011;16676;51.202;6.774;2023-04-06T16:56:03;1.83;;;1.50;;
29774;SDS011;16676;51.202;6.774;2023-04-06T17:00:06;2.63;;;1.50;;
29774;SDS011;16676;51.202;6.774;2023-04-06T17:04:11;2.40;;;1.60;;
29774;SDS011;16676;51.202;6.774;2023-04-06T17:08:13;3.13;;;1.58;;
29774;SDS011;16676;51.202;6.774;2023-04-06T17:12:14;2.20;;;1.55;;
29774;SDS011;16676;51.202;6.774;2023-04-06T17:16:16;2.15;;;1.27;;
29774;SDS011;16676;51.202;6.774;2023-04-06T17:20:21;2.25;;;1.50;;
29774;SDS011;16676;51.202;6.774;2023-04-06T17:24:23;2.65;;;1.45;;
29774;SDS011;16676;51.202;6.774;2023-04-06T17:28:25;3.30;;;1.67;;
29774;SDS011;16676;51.202;6.774;2023-04-06T17:32:27;2.47;;;1.70;;
29774;SDS011;16676;51.202;6.774;2023-04-06T17:36:30;2.20;;;1.70;;
29774;SDS011;16676;51.202;6.774;2023-04-06T17:40:32;1.50;;;1.27;;
29774;SDS011;16676;51.202;6.774;2023-04-06T17:44:35;2.75;;;1.63;;
29774;SDS011;16676;51.202;6.774;2023-04-06T17:48:37;2.72;;;1.50;;
29774;SDS011;16676;51.202;6.774;2023-04-06T17:52:41;1.88;;;1.48;;
29774;SDS011;16676;51.202;6.774;2023-04-06T17:56:43;2.47;;;1.58;;
29774;SDS011;16676;51.202;6.774;2023-04-06T18:00:48;2.22;;;1.55;;
29774;SDS011;16676;51.202;6.774;2023-04-06T18:04:50;3.05;;;1.70;;
29774;SDS011;16676;51.202;6.774;2023-04-06T18:08:54;4.07;;;1.35;;
29774;SDS011;16676;51.202;6.774;2023-04-06T18:12:56;2.25;;;1.30;;
29774;SDS011;16676;51.202;6.774;2023-04-06T18:17:00;2.55;;;1.45;;
29774;SDS011;16676;51.202;6.774;2023-04-06T18:21:02;2.03;;;1.40;;
29774;SDS011;16676;51.202;6.774;2023-04-06T18:25:06;2.92;;;1.50;;
29774;SDS011;16676;51.202;6.774;2023-04-06T18:29:08;2.53;;;1.65;;
29774;SDS011;16676;51.202;6.774;2023-04-06T18:33:11;2.05;;;1.40;;
29774;SDS011;16676;51.202;6.774;2023-04-06T18:37:12;1.77;;;1.48;;
29774;SDS011;16676;51.202;6.774;2023-04-06T18:41:16;1.98;;;1.30;;
29774;SDS011;16676;51.202;6.774;2023-04-06T18:45:19;2.50;;;1.33;;
29774;SDS011;16676;51.202;6.774;2023-04-06T18:49:22;2.05;;;1.50;;
29774;SDS011;16676;51.202;6.774;2023-04-06T18:53:25;1.95;;;1.40;;
29774;SDS011;16676;51.202;6.774;2023-04-06T18:57:28;2.15;;;1.33;;
29774;SDS011;16676;51.202;6.774;2023-04-06T19:01:30;3.50;;;1.63;;
29774;SDS011;16676;51.202;6.774;2023-04-06T19:05:33;2.25;;;1.70;;
29774;SDS011;16676;51.202;6.774;2023-04-06T19:09:35;2.38;;;1.38;;
29774;SDS011;16676;51.202;6.774;2023-04-06T19:13:38;2.97;;;1.92;;
29774;SDS011;16676;51.202;6.774;2023-04-06T19:17:41;2.60;;;1.42;;
29774;SDS011;16676;51.202;6.774;2023-04-06T19:21:43;1.95;;;1.30;;
29774;SDS011;16676;51.202;6.774;2023-04-06T19:25:45;2.83;;;1.50;;
29774;SDS011;16676;51.202;6.774;2023-04-06T19:29:48;2.42;;;1.40;;
29774;SDS011;16676;51.202;6.774;2023-04-06T19:33:50;1.63;;;1.25;;
29774;SDS011;16676;51.202;6.774;2023-04-06T19:37:52;2.17;;;1.50;;
29774;SDS011;16676;51.202;6.774;2023-04-06T19:41:54;2.70;;;1.40;;
29774;SDS011;16676;51.202;6.774;2023-04-06T19:45:57;1.90;;;1.30;;
29774;SDS011;16676;51.202;6.774;2023-04-06T19:50:00;1.95;;;1.45;;
29774;SDS011;16676;51.202;6.774;2023-04-06T19:54:02;2.10;;;1.35;;
29774;SDS011;16676;51.202;6.774;2023-04-06T19:58:05;1.98;;;1.50;;
29774;SDS011;16676;51.202;6.774;2023-04-06T20:02:08;2.33;;;1.45;;
29774;SDS011;16676;51.202;6.774;2023-04-06T20:06:10;2.75;;;1.60;;
29774;SDS011;16676;51.202;6.774;2023-04-06T20:10:12;2.20;;;1.70;;
29774;SDS011;16676;51.202;6.774;2023-04-06T20:14:14;1.85;;;1.20;;
29774;SDS011;16676;51.202;6.774;2023-04-06T20:18:18;2.65;;;1.33;;
29774;SDS011;16676;51.202;6.774;2023-04-06T20:22:20;1.85;;;1.23;;
29774;SDS011;16676;51.202;6.774;2023-04-06T20:26:22;2.30;;;1.40;;
29774;SDS011;16676;51.202;6.774;2023-04-06T20:30:24;1.45;;;1.17;;
29774;SDS011;16676;51.202;6.774;2023-04-06T20:34:28;3.33;;;1.60;;
29774;SDS011;16676;51.202;6.774;2023-04-06T20:38:31;2.05;;;1.40;;
29774;SDS011;16676;51.202;6.774;2023-04-06T20:42:33;3.30;;;1.45;;
29774;SDS011;16676;51.202;6.774;2023-04-06T20:46:36;2.17;;;1.40;;
29774;SDS011;16676;51.202;6.774;2023-04-06T20:50:39;2.22;;;1.30;;
29774;SDS011;16676;51.202;6.774;2023-04-06T20:54:41;2.25;;;1.80;;
29774;SDS011;16676;51.202;6.774;2023-04-06T20:58:43;2.78;;;1.70;;
29774;SDS011;16676;51.202;6.774;2023-04-06T21:02:45;1.80;;;1.40;;
29774;SDS011;16676;51.202;6.774;2023-04-06T21:06:48;2.05;;;1.50;;
29774;SDS011;16676;51.202;6.774;2023-04-06T21:10:50;2.88;;;1.33;;
29774;SDS011;16676;51.202;6.774;2023-04-06T21:14:52;1.48;;;1.25;;
29774;SDS011;16676;51.202;6.774;2023-04-06T21:18:54;1.63;;;1.20;;
29774;SDS011;16676;51.202;6.774;2023-04-06T21:22:58;2.10;;;1.50;;
29774;SDS011;16676;51.202;6.774;2023-04-06T21:27:00;2.03;;;1.40;;
29774;SDS011;16676;51.202;6.774;2023-04-06T21:31:04;2.17;;;1.50;;
29774;SDS011;16676;51.202;6.774;2023-04-06T21:35:08;2.55;;;1.27;;
29774;SDS011;16676;51.202;6.774;2023-04-06T21:39:11;2.15;;;1.50;;
29774;SDS011;16676;51.202;6.774;2023-04-06T21:43:13;2.03;;;1.42;;
29774;SDS011;16676;51.202;6.774;2023-04-06T21:47:15;2.40;;;1.25;;
29774;SDS011;16676;51.202;6.774;2023-04-06T21:51:17;2.45;;;1.35;;
29774;SDS011;16676;51.202;6.774;2023-04-06T21:55:21;2.45;;;1.30;;
29774;SDS011;16676;51.202;6.774;2023-04-06T21:59:23;1.63;;;1.50;;
29774;SDS011;16676;51.202;6.774;2023-04-06T22:03:25;2.20;;;1.38;;
29774;SDS011;16676;51.202;6.774;2023-04-06T22:07:27;1.42;;;1.30;;
29774;SDS011;16676;51.202;6.774;2023-04-06T22:11:30;1.92;;;1.42;;
29774;SDS011;16676;51.202;6.774;2023-04-06T22:15:32;2.30;;;1.20;;
29774;SDS011;16676;51.202;6.774;2023-04-06T22:19:34;1.42;;;1.30;;
29774;SDS011;16676;51.202;6.774;2023-04-06T22:23:36;1.80;;;1.50;;
29774;SDS011;16676;51.202;6.774;2023-04-06T22:27:42;2.33;;;1.50;;
29774;SDS011;16676;51.202;6.774;2023-04-06T22:31:44;2.05;;;1.20;;
29774;SDS011;16676;51.202;6.774;2023-04-06T22:35:46;1.88;;;1.40;;
29774;SDS011;16676;51.202;6.774;2023-04-06T22:39:48;1.83;;;1.33;;
29774;SDS011;16676;51.202;6.774;2023-04-06T22:43:52;2.33;;;1.38;;
29774;SDS011;16676;51.202;6.774;2023-04-06T22:47:54;1.38;;;1.10;;
29774;SDS011;16676;51.202;6.774;2023-04-06T22:51:55;2.03;;;1.35;;
29774;SDS011;16676;51.202;6.774;2023-04-06T22:55:57;1.90;;;1.35;;
29774;SDS011;16676;51.202;6.774;2023-04-06T23:00:01;1.55;;;1.23;;
29774;SDS011;16676;51.202;6.774;2023-04-06T23:04:05;1.83;;;1.38;;
29774;SDS011;16676;51.202;6.774;2023-04-06T23:08:07;1.85;;;1.38;;
29774;SDS011;16676;51.202;6.774;2023-04-06T23:12:09;1.50;;;1.13;;
29774;SDS011;16676;51.202;6.774;2023-04-06T23:16:12;1.42;;;1.23;;
29774;SDS011;16676;51.202;6.774;2023-04-06T23:20:14;2.40;;;1.35;;
29774;SDS011;16676;51.202;6.774;2023-04-06T23:24:16;2.22;;;1.45;;
29774;SDS011;16676;51.202;6.774;2023-04-06T23:28:18;3.17;;;1.17;;
29774;SDS011;16676;51.202;6.774;2023-04-06T23:32:21;1.50;;;1.20;;
29774;SDS011;16676;51.202;6.774;2023-04-06T23:36:23;1.55;;;1.13;;
29774;SDS011;16676;51.202;6.774;2023-04-06T23:40:25;1.45;;;1.13;;
29774;SDS011;16676;51.202;6.774;2023-04-06T23:44:28;1.60;;;1.02;;
29774;SDS011;16676;51.202;6.774;2023-04-06T23:52:34;2.08;;;1.20;;
29774;SDS011;16676;51.202;6.774;2023-04-06T23:56:36;3.50;;;1.30;;
